Time;durP1;ratioP1;P1;durP2;ratioP2;P2;SDS_P1;SDS_P2;PMS_P1;PMS_P2;Temp;Humidity;BMP_temperature;BMP_pressure;BME280_temperature;BME280_humidity;BME280_pressure;Samples;Min_cycle;Max_cycle;Signal;HPM_P1;HPM_P2
2022/11/12 00:01:05;;;;;;;8.48;4.78;;;3.90;99.90;;;3.06;100.00;99014.59;4951025;28;20057;-73
2022/11/12 00:03:32;;;;;;;10.20;5.88;;;3.90;99.90;;;3.03;100.00;99019.66;4964779;28;20054;-72
2022/11/12 00:05:59;;;;;;;16.10;6.88;;;3.90;99.90;;;3.01;100.00;99018.78;4981251;28;20062;-72
2022/11/12 00:08:25;;;;;;;17.00;8.32;;;3.90;99.90;;;3.06;100.00;99023.13;4966896;28;20771;-73
2022/11/12 00:10:53;;;;;;;44.38;11.32;;;3.80;99.90;;;3.00;100.00;99022.19;4967957;28;20082;-73
2022/11/12 00:13:20;;;;;;;17.42;7.20;;;3.90;99.90;;;3.08;100.00;99016.31;4967284;28;20150;-74
2022/11/12 00:15:46;;;;;;;37.40;8.48;;;3.90;99.90;;;2.96;100.00;99016.16;4966775;28;20058;-72
2022/11/12 00:18:13;;;;;;;110.18;13.07;;;3.90;99.90;;;2.65;100.00;99014.97;4966585;28;20053;-73
2022/11/12 00:20:40;;;;;;;83.22;14.02;;;3.70;99.90;;;2.58;100.00;99008.03;4967748;28;20101;-73
2022/11/12 00:23:07;;;;;;;30.20;10.05;;;3.60;99.90;;;2.79;100.00;99007.44;4966833;28;20053;-72
2022/11/12 00:25:34;;;;;;;21.88;9.05;;;3.60;99.90;;;2.80;100.00;99014.28;4968503;28;20042;-72
2022/11/12 00:28:07;;;;;;;72.60;11.63;;;3.60;99.90;;;2.47;100.00;99021.59;4964572;28;20489;-72
2022/11/12 00:30:38;;;;;;;17.38;7.10;;;3.60;99.90;;;2.63;100.00;99017.50;4964171;28;20050;-73
2022/11/12 00:33:05;;;;;;;84.57;9.93;;;3.60;99.90;;;2.56;100.00;99017.44;4961522;28;20078;-73
2022/11/12 00:35:33;;;;;;;56.33;11.50;;;3.60;99.90;;;2.44;100.00;99016.44;4963344;28;20051;-72
2022/11/12 00:38:00;;;;;;;84.38;18.80;;;3.60;99.90;;;2.43;100.00;99024.09;4964009;28;20114;-73
2022/11/12 00:40:28;;;;;;;76.18;17.40;;;3.60;99.90;;;2.41;100.00;99029.19;4965826;28;20050;-74
2022/11/12 00:42:55;;;;;;;75.82;16.23;;;3.50;99.90;;;2.51;100.00;99032.75;4968427;28;20457;-73
2022/11/12 00:45:22;;;;;;;41.30;10.80;;;3.40;99.90;;;2.48;100.00;99030.13;4974496;28;20051;-73
2022/11/12 00:47:56;;;;;;;57.63;10.50;;;3.40;99.90;;;2.40;100.00;99035.16;4945546;28;20070;-73
2022/11/12 00:50:23;;;;;;;55.20;12.85;;;3.40;99.90;;;2.47;100.00;99036.97;4966580;28;20050;-72
2022/11/12 00:52:52;;;;;;;34.67;12.75;;;3.40;99.90;;;2.58;100.00;99037.09;4958249;28;20086;-71
2022/11/12 00:55:19;;;;;;;17.77;9.00;;;3.40;99.90;;;2.56;100.00;99037.94;4964762;28;20074;-72
2022/11/12 00:57:46;;;;;;;31.10;10.93;;;3.50;99.90;;;2.64;100.00;99047.41;4944344;28;20101;-73
2022/11/12 01:00:18;;;;;;;45.85;12.35;;;3.50;99.90;;;2.47;100.00;99043.78;4958722;28;20051;-72
2022/11/12 01:02:45;;;;;;;31.60;9.68;;;3.50;99.90;;;2.55;100.00;99043.88;4978573;28;20114;-74
2022/11/12 01:05:18;;;;;;;85.97;13.33;;;3.50;99.90;;;2.50;100.00;99042.13;4957857;28;20070;-73
2022/11/12 01:07:45;;;;;;;74.80;16.70;;;3.50;99.90;;;2.37;100.00;99044.50;4960622;28;20065;-73
2022/11/12 01:10:17;;;;;;;57.35;13.00;;;3.30;99.90;;;2.27;100.00;99044.38;4956408;28;20078;-72
2022/11/12 01:12:44;;;;;;;66.30;12.85;;;3.20;99.90;;;2.36;100.00;99045.34;4960038;28;20520;-73
2022/11/12 01:15:11;;;;;;;16.77;9.27;;;3.20;99.90;;;2.35;100.00;99041.03;4962523;28;20043;-73
2022/11/12 01:17:37;;;;;;;20.40;10.13;;;3.20;99.90;;;2.35;100.00;99041.94;4961746;28;20560;-73
2022/11/12 01:20:05;;;;;;;58.65;15.07;;;3.20;99.90;;;2.27;100.00;99048.63;4963918;28;20055;-73
2022/11/12 01:22:32;;;;;;;34.20;9.45;;;3.20;99.90;;;2.24;100.00;99041.78;4959149;28;20054;-72
2022/11/12 01:24:59;;;;;;;30.23;9.25;;;3.10;99.90;;;2.35;100.00;99041.03;4959407;28;20721;-73
2022/11/12 01:27:26;;;;;;;14.35;7.88;;;3.10;99.90;;;2.33;100.00;99032.47;4961956;28;20056;-73
2022/11/12 01:29:53;;;;;;;13.98;8.13;;;3.10;99.90;;;2.34;100.00;99023.97;4956200;28;20047;-73
2022/11/12 01:32:19;;;;;;;17.90;8.50;;;3.10;99.90;;;2.30;100.00;99017.91;4956375;28;20151;-73
2022/11/12 01:34:46;;;;;;;11.55;7.40;;;3.10;99.90;;;2.39;100.00;99022.31;4958305;28;20062;-72
2022/11/12 01:37:13;;;;;;;14.60;8.27;;;3.10;99.90;;;2.23;100.00;99019.53;4980194;28;20062;-74
2022/11/12 01:39:40;;;;;;;33.75;10.63;;;3.10;99.90;;;2.16;100.00;99017.72;4963059;28;20070;-72
2022/11/12 01:42:07;;;;;;;29.83;10.60;;;3.00;99.90;;;1.94;100.00;99019.16;4975523;28;20761;-72
2022/11/12 01:44:38;;;;;;;13.32;9.13;;;2.90;99.90;;;1.86;100.00;99013.88;4962644;28;20076;-72
2022/11/12 01:47:21;;;;;;;10.98;7.63;;;2.80;99.90;;;1.79;100.00;99017.19;4963367;28;20495;-72
2022/11/12 01:50:06;;;;;;;9.10;6.40;;;2.70;99.90;;;1.76;100.00;99013.75;4965353;28;20199;-73
2022/11/12 01:52:48;;;;;;;7.70;5.57;;;2.70;99.90;;;1.70;100.00;99019.59;4960798;28;20138;-73
2022/11/12 01:55:21;;;;;;;11.30;6.93;;;2.70;99.90;;;1.79;100.00;99021.47;4978250;28;20139;-72
2022/11/12 01:57:55;;;;;;;10.73;7.25;;;2.70;99.90;;;1.82;100.00;99017.22;4960287;28;20051;-72
2022/11/12 02:00:22;;;;;;;9.20;5.50;;;2.70;99.90;;;1.80;100.00;99024.06;4970900;28;20054;-73
2022/11/12 02:02:57;;;;;;;9.95;5.88;;;2.70;99.90;;;1.80;100.00;99021.50;4955321;28;20050;-72
2022/11/12 02:05:27;;;;;;;6.90;4.60;;;2.70;99.90;;;1.72;100.00;99020.50;4958538;28;20061;-73
2022/11/12 02:07:56;;;;;;;4.90;3.20;;;2.70;99.90;;;1.86;100.00;99019.00;4980427;28;20070;-73
2022/11/12 02:10:24;;;;;;;5.57;2.10;;;2.70;99.90;;;1.92;100.00;99005.44;4957795;28;20063;-72
2022/11/12 02:15:40;;;;;;;83.28;5.03;;;2.90;99.90;;;1.92;100.00;99005.44;4959941;28;20054;-73
2022/11/12 02:18:07;;;;;;;89.57;6.93;;;2.90;99.90;;;1.98;100.00;99005.53;4959937;28;20122;-73
2022/11/12 02:20:37;;;;;;;138.98;6.40;;;3.00;99.90;;;2.14;100.00;98991.22;4964997;28;20792;-71
2022/11/12 02:23:06;;;;;;;181.38;9.25;;;3.10;99.90;;;2.19;100.00;98991.28;4958416;28;20061;-73
2022/11/12 02:25:34;;;;;;;273.52;11.98;;;3.20;99.90;;;2.29;100.00;98998.28;4970317;28;20436;-72
2022/11/12 02:28:06;;;;;;;168.93;8.48;;;3.30;99.90;;;2.33;100.00;98997.47;4968089;28;20150;-73
2022/11/12 02:30:48;;;;;;;495.58;20.73;;;3.40;99.90;;;2.34;100.00;98988.94;4980825;28;20059;-73
2022/11/12 02:33:15;;;;;;;307.08;12.45;;;3.40;99.90;;;2.38;100.00;98987.28;4957705;28;20058;-73
2022/11/12 02:35:41;;;;;;;383.05;13.27;;;3.40;99.90;;;2.46;100.00;98977.97;4961073;28;20407;-72
2022/11/12 02:38:09;;;;;;;668.88;32.38;;;3.40;99.90;;;2.39;100.00;98969.34;4943782;28;20047;-72
2022/11/12 02:40:36;;;;;;;514.88;20.88;;;3.40;99.90;;;2.38;100.00;98971.91;4960210;28;20050;-73
2022/11/12 02:43:04;;;;;;;558.58;19.02;;;3.40;99.90;;;2.31;100.00;98976.09;4962757;28;20689;-73
2022/11/12 02:45:31;;;;;;;426.08;15.48;;;3.40;99.90;;;2.29;100.00;98985.47;4969132;28;20051;-73
2022/11/12 02:47:57;;;;;;;447.08;13.70;;;3.30;99.90;;;2.25;100.00;98982.00;4955310;28;20050;-70
2022/11/12 02:50:24;;;;;;;456.90;18.75;;;3.30;99.90;;;2.20;100.00;98973.41;4957810;28;20066;-73
2022/11/12 02:52:51;;;;;;;463.75;15.63;;;3.20;99.90;;;2.16;100.00;98981.00;4964226;28;20047;-71
2022/11/12 02:55:18;;;;;;;346.23;9.55;;;3.20;99.90;;;2.08;100.00;98970.69;4962181;28;20054;-72
2022/11/12 02:57:45;;;;;;;339.20;9.93;;;3.20;99.90;;;2.06;100.00;98969.78;4962138;28;20062;-73
2022/11/12 03:00:12;;;;;;;520.25;19.15;;;3.10;99.90;;;2.00;100.00;98967.13;4958977;28;20547;-72
2022/11/12 03:02:41;;;;;;;174.77;7.07;;;3.10;99.90;;;2.07;100.00;98964.66;4966582;28;20058;-71
2022/11/12 03:05:10;;;;;;;417.42;12.13;;;3.10;99.90;;;2.08;100.00;98966.41;4959815;28;20119;-73
2022/11/12 03:07:37;;;;;;;344.40;15.68;;;3.20;99.90;;;2.11;100.00;98959.63;4971732;28;20137;-72
2022/11/12 03:10:05;;;;;;;384.65;14.77;;;3.10;99.90;;;2.12;100.00;98969.00;4954156;28;20130;-73
2022/11/12 03:12:32;;;;;;;296.13;8.93;;;3.10;99.90;;;2.17;100.00;98968.25;4969575;28;20660;-72
2022/11/12 03:14:59;;;;;;;359.48;11.00;;;3.10;99.90;;;2.18;100.00;98964.81;4956721;28;20438;-73
2022/11/12 03:17:26;;;;;;;510.52;22.77;;;3.10;99.90;;;2.05;100.00;98956.13;4974162;28;20116;-72
2022/11/12 03:19:53;;;;;;;282.67;8.73;;;3.10;99.90;;;2.16;100.00;98950.28;4954637;28;20582;-73
2022/11/12 03:22:20;;;;;;;540.00;19.60;;;3.20;99.90;;;2.14;100.00;98952.81;4960773;28;20058;-73
2022/11/12 03:24:46;;;;;;;313.02;15.90;;;3.20;99.90;;;2.20;100.00;98947.78;4964549;28;20047;-73
2022/11/12 03:27:14;;;;;;;252.63;10.18;;;3.30;99.90;;;2.27;100.00;98934.19;4960568;28;20406;-73
2022/11/12 03:29:40;;;;;;;166.13;7.65;;;3.30;99.90;;;2.29;100.00;98947.88;4966645;28;20058;-72
2022/11/12 03:32:07;;;;;;;277.25;7.88;;;3.30;99.90;;;2.36;100.00;98946.28;4959133;28;20791;-72
2022/11/12 03:34:34;;;;;;;198.80;7.22;;;3.30;99.90;;;2.35;100.00;98939.44;4963057;28;20442;-73
2022/11/12 03:37:01;;;;;;;167.50;6.65;;;3.30;99.90;;;2.22;100.00;98940.97;4965283;28;20067;-72
2022/11/12 03:39:28;;;;;;;203.32;6.53;;;3.20;99.90;;;2.18;100.00;98935.78;4958077;28;20467;-72
2022/11/12 03:41:55;;;;;;;195.65;6.15;;;3.10;99.90;;;2.11;100.00;98929.72;4968069;28;20138;-73
2022/11/12 03:44:22;;;;;;;194.02;6.45;;;3.10;99.90;;;1.99;100.00;98935.56;4980374;28;20439;-72
2022/11/12 03:46:49;;;;;;;82.90;4.18;;;3.00;99.90;;;1.93;100.00;98935.47;4961300;28;20047;-72
2022/11/12 03:49:16;;;;;;;40.92;2.35;;;2.90;99.90;;;1.93;100.00;98934.59;4960624;28;20054;-72
2022/11/12 03:51:42;;;;;;;55.20;2.50;;;2.90;99.90;;;1.90;100.00;98939.69;4966074;28;20054;-72
2022/11/12 03:54:09;;;;;;;19.25;1.30;;;2.90;99.90;;;2.04;100.00;98938.19;4968124;28;20078;-72
2022/11/12 03:56:36;;;;;;;14.25;1.25;;;2.90;99.90;;;2.08;100.00;98945.91;4967254;28;20054;-73
2022/11/12 03:59:04;;;;;;;7.20;1.30;;;2.90;99.90;;;2.09;100.00;98942.50;4968366;28;20054;-73
2022/11/12 04:01:31;;;;;;;5.40;0.90;;;2.90;99.90;;;2.13;100.00;98935.72;4962391;28;20136;-71
2022/11/12 04:03:58;;;;;;;7.45;0.90;;;2.90;99.90;;;2.18;100.00;98935.78;4966303;28;20235;-73
2022/11/12 04:09:10;;;;;;;6.95;1.13;;;3.00;99.90;;;2.03;100.00;98937.31;4958040;28;20157;-73
2022/11/12 04:11:37;;;;;;;2.78;0.70;;;2.90;99.90;;;2.10;100.00;98933.16;4960085;28;20058;-73
2022/11/12 04:14:04;;;;;;;20.13;2.22;;;2.90;99.90;;;1.78;100.00;98941.25;4966332;28;20063;-73
2022/11/12 04:22:09;;;;;;;7.05;1.58;;;2.70;99.90;;;1.62;100.00;98942.72;4968065;28;20054;-72
2022/11/12 04:27:33;;;;;;;5.00;1.58;;;2.70;99.90;;;1.81;100.00;98940.44;4968897;28;20058;-73
2022/11/12 04:30:15;;;;;;;4.63;1.00;;;2.70;99.90;;;1.84;100.00;98933.63;4958854;28;20493;-71
2022/11/12 04:32:53;;;;;;;8.95;1.50;;;2.70;99.90;;;1.86;100.00;98934.50;4962325;28;20051;-72
2022/11/12 04:35:25;;;;;;;4.93;1.20;;;2.80;99.90;;;1.79;100.00;98930.16;4965477;28;20434;-72
2022/11/12 04:37:52;;;;;;;5.63;1.25;;;2.70;99.90;;;1.85;100.00;98937.94;4959116;28;20665;-73
2022/11/12 04:45:58;;;;;;;10.50;1.35;;;2.40;99.90;;;1.24;100.00;98944.66;4965117;28;20062;-73
2022/11/12 04:48:25;;;;;;;3.75;1.40;;;2.30;99.90;;;1.21;100.00;98934.41;4959119;28;20062;-72
2022/11/12 04:50:58;;;;;;;4.38;1.30;;;2.20;99.90;;;1.14;100.00;98943.66;4957465;28;20043;-73
2022/11/12 04:53:26;;;;;;;72.75;3.10;;;2.10;99.90;;;1.09;100.00;98941.84;4959358;28;20057;-72
2022/11/12 04:55:56;;;;;;;459.60;17.65;;;2.10;99.90;;;1.04;100.00;98932.38;4958411;28;20062;-72
2022/11/12 04:58:23;;;;;;;402.02;13.95;;;2.10;99.90;;;1.06;100.00;98934.97;4958479;28;20068;-73
2022/11/12 05:00:51;;;;;;;377.45;14.68;;;2.20;99.90;;;1.17;100.00;98930.91;4960988;28;20916;-73
2022/11/12 05:03:18;;;;;;;353.17;16.35;;;2.20;99.90;;;1.22;100.00;98928.44;4959627;28;20046;-72
2022/11/12 05:05:45;;;;;;;638.83;24.95;;;2.30;99.90;;;1.28;100.00;98930.22;4953929;28;20043;-72
2022/11/12 05:08:12;;;;;;;618.85;26.33;;;2.30;99.90;;;1.38;100.00;98916.75;4965269;28;20145;-72
2022/11/12 05:10:38;;;;;;;586.05;24.25;;;2.40;99.90;;;1.47;100.00;98922.00;4965674;28;20042;-72
2022/11/12 05:13:05;;;;;;;760.60;33.47;;;2.50;99.90;;;1.42;100.00;98916.81;4958323;28;20681;-73
2022/11/12 05:15:32;;;;;;;554.05;20.40;;;2.50;99.90;;;1.45;100.00;98923.69;4965326;28;20051;-73
2022/11/12 05:17:59;;;;;;;828.67;38.45;;;2.50;99.90;;;1.46;100.00;98927.97;4960039;28;20081;-71
2022/11/12 05:20:26;;;;;;;967.15;36.78;;;2.50;99.90;;;1.47;100.00;98916.88;4956560;28;20062;-72
2022/11/12 05:22:52;;;;;;;910.90;38.25;;;2.50;99.90;;;1.39;100.00;98909.09;4959125;28;20118;-70
2022/11/12 05:25:34;;;;;;;904.25;34.90;;;2.50;99.90;;;1.34;100.00;98920.94;4959546;28;20078;-73
2022/11/12 05:28:01;;;;;;;811.90;31.33;;;2.50;99.90;;;1.37;100.00;98913.34;4960903;28;20062;-73
2022/11/12 05:30:28;;;;;;;844.35;26.42;;;2.50;99.90;;;1.43;100.00;98907.44;4965298;28;20050;-72
2022/11/12 05:32:55;;;;;;;562.28;27.40;;;2.50;99.90;;;1.45;100.00;98903.22;4964671;28;20417;-75
2022/11/12 05:35:22;;;;;;;567.72;22.83;;;2.50;99.90;;;1.55;100.00;98899.06;4956723;28;20672;-73
2022/11/12 05:37:49;;;;;;;453.63;19.88;;;2.60;99.90;;;1.57;100.00;98898.25;4963978;28;20157;-73
2022/11/12 05:40:16;;;;;;;341.08;19.50;;;2.70;99.90;;;1.58;100.00;98896.59;4959768;28;20051;-72
2022/11/12 05:42:44;;;;;;;652.70;21.80;;;2.70;99.90;;;1.49;100.00;98906.69;4959111;28;20520;-71
2022/11/12 05:45:11;;;;;;;546.13;16.30;;;2.60;99.90;;;1.46;100.00;98913.47;4957217;28;20477;-71
2022/11/12 05:47:38;;;;;;;554.97;19.92;;;2.50;99.90;;;1.37;100.00;98917.56;4960979;28;20073;-72
2022/11/12 05:50:05;;;;;;;518.35;15.98;;;2.50;99.90;;;1.29;100.00;98921.72;4979536;28;20055;-73
2022/11/12 05:52:32;;;;;;;320.90;11.98;;;2.40;99.90;;;1.38;100.00;98932.09;4963071;28;20057;-73
2022/11/12 05:54:59;;;;;;;345.67;10.00;;;2.50;99.90;;;1.44;100.00;98933.06;4963062;28;20054;-73
2022/11/12 05:57:26;;;;;;;352.88;12.57;;;2.50;99.90;;;1.45;100.00;98936.47;4975772;28;20058;-72
2022/11/12 05:59:53;;;;;;;388.85;12.30;;;2.50;99.90;;;1.41;100.00;98938.09;4954174;28;20485;-72
2022/11/12 06:02:20;;;;;;;439.20;17.58;;;2.50;99.90;;;1.42;100.00;98931.31;4959692;28;20049;-72
2022/11/12 06:04:47;;;;;;;80.00;3.50;;;2.50;99.90;;;1.67;100.00;98932.53;4964396;28;20057;-73
2022/11/12 06:07:14;;;;;;;73.85;3.17;;;2.60;99.90;;;1.82;100.00;98930.19;4959849;28;20059;-72
2022/11/12 06:09:41;;;;;;;127.10;4.20;;;2.70;99.90;;;1.82;100.00;98937.88;4965318;28;20568;-73
2022/11/12 06:12:08;;;;;;;144.63;6.82;;;2.80;99.90;;;1.87;100.00;98932.81;4960084;28;20055;-73
2022/11/12 06:14:34;;;;;;;270.35;8.88;;;3.00;99.90;;;1.84;100.00;98938.75;4961192;28;20054;-73
2022/11/12 06:17:01;;;;;;;113.38;4.10;;;2.90;99.90;;;1.95;100.00;98935.50;4958328;28;20062;-73
2022/11/12 06:19:29;;;;;;;34.97;2.70;;;3.00;99.90;;;1.82;100.00;98944.69;4962328;28;20058;-72
2022/11/12 06:21:55;;;;;;;335.05;12.02;;;3.00;99.90;;;1.79;100.00;98940.38;4956231;28;20051;-73
2022/11/12 06:24:22;;;;;;;291.40;12.63;;;3.00;99.90;;;1.77;100.00;98948.91;4962390;28;20074;-72
2022/11/12 06:26:49;;;;;;;282.92;8.18;;;2.80;99.90;;;1.71;100.00;98946.22;4961461;28;20058;-72
2022/11/12 06:29:16;;;;;;;267.13;11.00;;;2.80;99.90;;;1.71;100.00;98953.91;4956986;28;20051;-72
2022/11/12 06:31:43;;;;;;;168.13;8.13;;;2.70;99.90;;;1.71;100.00;98954.81;4962585;28;20119;-72
2022/11/12 06:34:11;;;;;;;260.85;9.32;;;2.80;99.90;;;1.68;100.00;98950.47;4959438;28;20412;-72
2022/11/12 06:36:38;;;;;;;165.68;5.10;;;2.80;99.90;;;1.75;100.00;98941.19;4961925;28;20042;-72
2022/11/12 06:39:05;;;;;;;181.43;7.30;;;2.80;99.90;;;1.65;100.00;98940.19;4967138;28;20065;-72
2022/11/12 06:41:31;;;;;;;36.83;2.63;;;2.80;99.90;;;1.79;100.00;98950.63;4966249;28;20055;-72
2022/11/12 06:43:58;;;;;;;135.98;4.22;;;2.90;99.90;;;1.93;100.00;98944.84;4965844;28;20081;-73
2022/11/12 06:46:25;;;;;;;147.82;7.45;;;3.00;99.90;;;2.03;100.00;98949.25;4966821;28;20055;-71
2022/11/12 06:48:52;;;;;;;64.45;3.70;;;3.00;99.90;;;1.97;100.00;98952.59;4962944;28;20047;-73
2022/11/12 06:51:20;;;;;;;129.57;4.07;;;3.00;99.90;;;1.93;100.00;98949.97;4965629;28;20154;-73
2022/11/12 06:53:48;;;;;;;132.90;4.95;;;3.00;99.90;;;1.90;100.00;98945.69;4963760;28;20058;-72
2022/11/12 06:56:15;;;;;;;170.73;4.80;;;3.00;99.90;;;1.86;100.00;98944.75;4963882;28;20117;-72
2022/11/12 06:58:42;;;;;;;112.78;3.80;;;2.90;99.90;;;1.91;100.00;98951.66;4964708;28;20129;-73
2022/11/12 07:01:13;;;;;;;121.38;5.68;;;2.90;99.90;;;1.88;100.00;98945.63;4967618;28;20062;-72
2022/11/12 07:03:42;;;;;;;37.88;3.05;;;3.00;99.90;;;2.04;100.00;98951.84;4969753;28;20051;-73
2022/11/12 07:06:19;;;;;;;112.40;4.75;;;3.10;99.90;;;2.14;100.00;98954.50;4968590;28;20062;-71
2022/11/12 07:08:48;;;;;;;34.58;5.53;;;3.20;99.90;;;2.25;100.00;98955.53;4982244;28;20152;-72
2022/11/12 07:11:16;;;;;;;50.47;5.55;;;3.30;99.90;;;2.31;100.00;98958.16;4982782;28;20161;-72
2022/11/12 07:13:44;;;;;;;14.10;4.57;;;3.40;99.90;;;2.49;100.00;98963.50;4968571;28;20042;-71
2022/11/12 07:16:17;;;;;;;37.30;5.82;;;3.50;99.90;;;2.38;100.00;98967.66;4967591;28;20066;-70
2022/11/12 07:18:46;;;;;;;108.50;8.35;;;3.60;99.90;;;2.57;100.00;98968.72;4967219;28;20051;-72
2022/11/12 07:21:19;;;;;;;230.77;8.23;;;3.70;99.90;;;2.54;100.00;98971.25;4968156;28;20051;-72
2022/11/12 07:23:46;;;;;;;133.43;4.40;;;3.70;99.90;;;2.51;100.00;98977.22;4967939;28;20061;-71
2022/11/12 07:26:23;;;;;;;86.28;4.28;;;3.60;99.90;;;2.39;100.00;98977.03;4969371;28;20051;-71
2022/11/12 07:28:51;;;;;;;68.75;4.00;;;3.70;99.90;;;2.55;100.00;98978.09;4967101;28;20082;-71
2022/11/12 07:31:19;;;;;;;62.22;3.72;;;3.70;99.90;;;2.63;100.00;98984.19;4967644;28;20062;-72
2022/11/12 07:33:49;;;;;;;72.10;5.00;;;3.80;99.90;;;2.61;100.00;98978.19;4966729;28;20051;-71
2022/11/12 07:36:19;;;;;;;257.42;10.60;;;3.90;99.90;;;2.59;100.00;98982.41;4970483;28;20054;-72
2022/11/12 07:38:51;;;;;;;158.73;9.35;;;3.80;99.90;;;2.62;100.00;98973.91;4978324;28;20046;-70
2022/11/12 07:41:22;;;;;;;238.43;11.95;;;3.90;99.90;;;2.77;100.00;98975.78;4960176;28;20154;-71
2022/11/12 07:43:51;;;;;;;275.55;14.35;;;3.90;99.90;;;2.72;100.00;98986.84;4971023;28;20051;-71
2022/11/12 07:46:25;;;;;;;174.48;8.48;;;3.90;99.90;;;2.84;100.00;98992.97;4975824;28;20509;-71
2022/11/12 07:48:53;;;;;;;323.15;16.55;;;3.90;99.90;;;2.57;100.00;98990.94;4962153;28;20054;-71
2022/11/12 07:51:24;;;;;;;337.50;12.70;;;4.00;99.90;;;2.71;100.00;99002.22;4961718;28;20043;-72
2022/11/12 07:53:55;;;;;;;485.77;21.33;;;4.10;99.90;;;2.86;100.00;98996.41;4959060;28;20051;-73
2022/11/12 07:56:26;;;;;;;235.77;8.90;;;4.20;99.90;;;3.08;100.00;99000.03;4960398;28;20556;-72
2022/11/12 07:58:53;;;;;;;297.85;16.05;;;4.20;99.90;;;3.02;100.00;99002.56;4966043;28;20061;-72
2022/11/12 08:01:33;;;;;;;366.70;18.33;;;4.30;99.90;;;3.04;100.00;99004.28;4967614;28;20047;-72
2022/11/12 08:04:04;;;;;;;138.15;8.82;;;4.40;99.90;;;3.19;100.00;98998.44;4963984;28;20239;-73
2022/11/12 08:06:32;;;;;;;194.30;10.40;;;4.40;99.90;;;3.12;100.00;98991.53;4944548;28;20050;-73
2022/11/12 08:09:02;;;;;;;263.02;13.52;;;4.50;99.90;;;3.17;100.00;98991.56;4964912;28;20058;-73
2022/11/12 08:11:29;;;;;;;749.05;30.45;;;4.60;99.90;;;3.13;100.00;98990.72;4956456;28;20058;-72
2022/11/12 08:13:56;;;;;;;490.77;24.08;;;4.50;99.90;;;3.18;100.00;98991.59;4958901;28;20082;-72
2022/11/12 08:16:23;;;;;;;528.67;23.75;;;4.50;99.90;;;2.97;100.00;98988.84;4960247;28;20051;-73
2022/11/12 08:18:50;;;;;;;380.73;17.10;;;4.60;99.90;;;3.20;100.00;98997.63;4962354;28;20062;-73
2022/11/12 08:21:18;;;;;;;235.73;9.75;;;4.60;99.90;;;3.46;100.00;98999.56;4960754;28;20469;-71
2022/11/12 08:23:45;;;;;;;233.43;9.13;;;4.70;99.90;;;3.61;100.00;99001.41;4962149;28;20058;-72
2022/11/12 08:26:15;;;;;;;234.55;12.57;;;4.80;99.90;;;3.74;100.00;99001.50;4967650;28;20061;-73
2022/11/12 08:28:43;;;;;;;570.33;23.10;;;4.90;99.90;;;3.66;100.00;99002.28;4964039;28;20137;-72
2022/11/12 08:31:17;;;;;;;584.95;28.13;;;4.90;99.90;;;3.67;100.00;98999.75;4959308;28;20046;-73
2022/11/12 08:33:44;;;;;;;723.17;29.67;;;5.00;99.90;;;3.75;100.00;98998.06;4961575;28;20061;-73
2022/11/12 08:36:14;;;;;;;321.50;11.43;;;5.00;99.90;;;3.99;100.00;98999.09;4960468;28;20469;-71
2022/11/12 08:38:42;;;;;;;176.27;8.07;;;5.10;99.90;;;4.01;100.00;98992.25;4959024;28;20449;-72
2022/11/12 08:41:12;;;;;;;550.95;26.05;;;5.10;99.90;;;3.76;100.00;98989.53;4955806;28;20051;-73
2022/11/12 08:43:40;;;;;;;732.45;31.80;;;5.10;99.90;;;3.61;100.00;98986.00;4953916;28;20050;-71
2022/11/12 08:46:08;;;;;;;220.57;10.95;;;5.00;99.90;;;3.67;100.00;98986.03;4972445;28;20157;-73
2022/11/12 08:48:36;;;;;;;103.07;6.97;;;5.10;99.90;;;3.70;100.00;98983.50;4953477;28;20746;-71
2022/11/12 08:51:04;;;;;;;342.60;13.25;;;5.20;99.90;;;3.91;100.00;98982.78;4956689;28;20058;-71
2022/11/12 08:53:32;;;;;;;53.75;4.32;;;5.20;99.90;;;4.03;100.00;98976.84;4957334;28;20069;-73
2022/11/12 08:55:59;;;;;;;112.47;6.43;;;5.40;99.90;;;4.01;100.00;98974.28;4955601;28;20050;-73
2022/11/12 08:58:26;;;;;;;86.85;6.07;;;5.50;99.90;;;4.27;100.00;98977.00;4957748;28;20051;-73
2022/11/12 09:00:55;;;;;;;138.77;8.82;;;5.70;99.90;;;4.39;100.00;98968.47;4959822;28;20114;-72
2022/11/12 09:03:25;;;;;;;46.08;3.88;;;5.80;99.90;;;4.33;100.00;98976.16;4958287;28;20090;-73
2022/11/12 09:05:53;;;;;;;381.80;20.08;;;5.70;99.90;;;4.25;100.00;98985.56;4948806;28;20046;-73
2022/11/12 09:08:23;;;;;;;385.15;12.90;;;5.80;99.90;;;4.21;100.00;98987.25;4966985;28;20050;-72
2022/11/12 09:10:51;;;;;;;153.38;8.82;;;5.60;99.90;;;4.38;100.00;98975.34;4960609;28;20413;-73
2022/11/12 09:13:18;;;;;;;317.33;11.23;;;5.70;99.90;;;4.53;100.00;98973.69;4966356;28;20059;-72
2022/11/12 09:15:46;;;;;;;170.52;7.75;;;5.80;99.90;;;4.78;100.00;98969.47;4960144;28;20038;-72
2022/11/12 09:18:16;;;;;;;88.80;5.57;;;6.00;99.90;;;4.87;100.00;98973.81;4962540;28;20081;-73
2022/11/12 09:20:44;;;;;;;134.13;6.80;;;6.20;99.90;;;5.01;100.00;98972.97;4975911;28;20047;-72
2022/11/12 09:23:16;;;;;;;47.75;3.72;;;6.30;99.90;;;5.23;100.00;98955.84;4967409;28;20051;-73
2022/11/12 09:25:43;;;;;;;265.33;11.90;;;6.40;99.90;;;4.69;100.00;98977.19;4966492;28;20058;-73
2022/11/12 09:28:17;;;;;;;81.25;6.28;;;6.40;99.90;;;5.12;100.00;98974.72;4962338;28;20054;-72
2022/11/12 09:30:48;;;;;;;;;;;6.40;99.90;;;4.76;100.00;98976.34;4980204;28;20054;-73
2022/11/12 09:33:33;;;;;;;87.03;4.10;;;6.40;99.90;;;4.94;100.00;98971.25;4959617;28;19933;-71
2022/11/12 09:36:02;;;;;;;283.20;10.00;;;6.50;99.90;;;5.02;100.00;98966.97;4966473;28;20058;-73
2022/11/12 09:38:30;;;;;;;115.20;5.47;;;6.50;99.90;;;5.01;100.00;98980.69;4967470;28;20054;-73
2022/11/12 09:41:15;;;;;;;142.57;7.43;;;6.40;99.90;;;5.19;100.00;98986.72;4957917;28;20066;-73
2022/11/12 09:43:52;;;;;;;61.58;4.68;;;6.50;99.90;;;5.42;100.00;98994.47;4961579;28;20043;-73
2022/11/12 09:46:34;;;;;;;119.47;5.88;;;6.90;99.90;;;5.65;100.00;98997.06;4966807;28;21038;-73
2022/11/12 09:49:18;;;;;;;77.72;5.28;;;7.10;99.90;;;5.92;100.00;98996.19;4958195;28;20050;-73
2022/11/12 09:52:00;;;;;;;82.53;4.70;;;7.30;99.90;;;5.40;100.00;98998.78;4980620;28;20062;-73
2022/11/12 09:54:33;;;;;;;204.88;13.38;;;7.20;99.90;;;4.69;100.00;99003.75;4978262;28;20059;-73
2022/11/12 09:57:01;;;;;;;121.43;10.52;;;7.10;99.90;;;4.55;100.00;99002.84;4965965;28;20047;-72
2022/11/12 09:59:31;;;;;;;121.32;11.07;;;6.90;99.90;;;4.61;100.00;98985.72;4965581;28;20058;-73
2022/11/12 10:02:09;;;;;;;269.02;16.02;;;6.80;99.90;;;4.77;100.00;98984.06;4981147;28;20063;-73
2022/11/12 10:04:46;;;;;;;180.95;18.67;;;6.70;99.90;;;4.94;100.00;98984.09;4962198;28;20051;-72
2022/11/12 10:07:31;;;;;;;86.90;12.40;;;6.80;99.90;;;4.96;100.00;98990.13;4962315;28;20050;-73
2022/11/12 10:10:14;;;;;;;124.75;16.73;;;6.90;99.90;;;5.38;100.00;98983.34;4957506;28;20066;-73
2022/11/12 10:13:32;;;;;;;73.53;9.50;;;7.00;99.90;;;5.58;100.00;98978.16;4951258;28;20058;-72
2022/11/12 10:16:42;;;;;;;76.25;10.13;;;7.10;99.90;;;6.08;100.00;98976.44;4960151;28;20047;-72
2022/11/12 10:19:20;;;;;;;116.80;9.10;;;7.30;99.90;;;5.92;100.00;98983.31;4964839;28;20063;-71
2022/11/12 10:22:31;;;;;;;23.50;6.28;;;7.40;99.90;;;6.13;100.00;98971.28;4963350;28;20087;-73
2022/11/12 10:25:19;;;;;;;105.40;10.70;;;7.50;99.90;;;5.64;100.00;98973.03;4949499;28;20054;-73
2022/11/12 10:27:54;;;;;;;86.72;10.55;;;7.40;99.90;;;5.79;100.00;98968.72;4961786;28;20077;-71
2022/11/12 10:30:23;;;;;;;47.17;9.18;;;7.50;99.90;;;5.93;100.00;98968.69;4957374;28;20051;-73
2022/11/12 10:32:51;;;;;;;105.05;12.65;;;7.50;99.90;;;5.38;100.00;98973.03;4955615;28;20047;-73
2022/11/12 10:35:22;;;;;;;93.30;11.55;;;7.50;99.90;;;5.10;100.00;98966.97;4956278;28;20051;-73
2022/11/12 10:38:11;;;;;;;103.70;12.82;;;7.50;99.90;;;5.12;100.00;98967.00;4951027;28;20062;-73
2022/11/12 10:40:40;;;;;;;105.22;15.68;;;7.50;99.90;;;5.27;100.00;98964.44;4957185;28;20058;-73
2022/11/12 10:43:16;;;;;;;88.90;12.40;;;7.50;99.90;;;5.47;100.00;98961.84;4968236;28;20532;-72